sensor_id;sensor_type;location;lat;lon;timestamp;P1;durP1;ratioP1;P2;durP2;ratioP2
17763;SDS011;22245;52.832;13.816;2023-12-20T00:01:09;2.00;;;1.70;;
17763;SDS011;22245;52.832;13.816;2023-12-20T00:04:32;2.07;;;1.70;;
17763;SDS011;22245;52.832;13.816;2023-12-20T00:07:53;2.47;;;1.60;;
17763;SDS011;22245;52.832;13.816;2023-12-20T00:11:15;2.33;;;2.00;;
17763;SDS011;22245;52.832;13.816;2023-12-20T00:14:37;3.37;;;2.03;;
17763;SDS011;22245;52.832;13.816;2023-12-20T00:17:58;3.13;;;2.00;;
17763;SDS011;22245;52.832;13.816;2023-12-20T00:21:22;2.87;;;2.17;;
17763;SDS011;22245;52.832;13.816;2023-12-20T00:24:44;2.47;;;1.83;;
17763;SDS011;22245;52.832;13.816;2023-12-20T00:28:05;2.57;;;2.10;;
17763;SDS011;22245;52.832;13.816;2023-12-20T00:31:28;3.83;;;2.00;;
17763;SDS011;22245;52.832;13.816;2023-12-20T00:34:49;2.40;;;2.00;;
17763;SDS011;22245;52.832;13.816;2023-12-20T00:38:12;2.27;;;2.00;;
17763;SDS011;22245;52.832;13.816;2023-12-20T00:41:34;2.90;;;2.17;;
17763;SDS011;22245;52.832;13.816;2023-12-20T00:44:56;3.27;;;2.10;;
17763;SDS011;22245;52.832;13.816;2023-12-20T00:48:18;2.87;;;1.90;;
17763;SDS011;22245;52.832;13.816;2023-12-20T00:51:40;2.63;;;2.37;;
17763;SDS011;22245;52.832;13.816;2023-12-20T00:55:02;2.63;;;2.07;;
17763;SDS011;22245;52.832;13.816;2023-12-20T00:58:25;2.90;;;2.27;;
17763;SDS011;22245;52.832;13.816;2023-12-20T01:01:48;3.30;;;2.53;;
17763;SDS011;22245;52.832;13.816;2023-12-20T01:05:10;3.13;;;2.50;;
17763;SDS011;22245;52.832;13.816;2023-12-20T01:08:31;2.83;;;2.17;;
17763;SDS011;22245;52.832;13.816;2023-12-20T01:11:56;3.40;;;2.47;;
17763;SDS011;22245;52.832;13.816;2023-12-20T01:15:17;2.77;;;2.27;;
17763;SDS011;22245;52.832;13.816;2023-12-20T01:18:39;2.37;;;2.17;;
17763;SDS011;22245;52.832;13.816;2023-12-20T01:22:01;3.20;;;2.00;;
17763;SDS011;22245;52.832;13.816;2023-12-20T01:25:23;2.30;;;2.10;;
17763;SDS011;22245;52.832;13.816;2023-12-20T01:28:46;3.03;;;2.13;;
17763;SDS011;22245;52.832;13.816;2023-12-20T01:32:08;2.97;;;1.57;;
17763;SDS011;22245;52.832;13.816;2023-12-20T01:35:29;2.07;;;1.50;;
17763;SDS011;22245;52.832;13.816;2023-12-20T01:38:51;2.80;;;1.30;;
17763;SDS011;22245;52.832;13.816;2023-12-20T01:42:12;1.60;;;1.00;;
17763;SDS011;22245;52.832;13.816;2023-12-20T01:45:35;1.63;;;1.10;;
17763;SDS011;22245;52.832;13.816;2023-12-20T01:48:57;2.10;;;0.80;;
17763;SDS011;22245;52.832;13.816;2023-12-20T01:52:19;2.13;;;0.93;;
17763;SDS011;22245;52.832;13.816;2023-12-20T01:55:41;2.53;;;0.80;;
17763;SDS011;22245;52.832;13.816;2023-12-20T01:59:03;3.77;;;0.97;;
17763;SDS011;22245;52.832;13.816;2023-12-20T02:02:26;1.77;;;0.90;;
17763;SDS011;22245;52.832;13.816;2023-12-20T02:05:49;2.93;;;0.80;;
17763;SDS011;22245;52.832;13.816;2023-12-20T02:09:11;1.47;;;0.60;;
17763;SDS011;22245;52.832;13.816;2023-12-20T02:12:32;1.20;;;0.80;;
17763;SDS011;22245;52.832;13.816;2023-12-20T02:15:54;2.53;;;0.70;;
17763;SDS011;22245;52.832;13.816;2023-12-20T02:19:17;2.53;;;0.90;;
17763;SDS011;22245;52.832;13.816;2023-12-20T02:22:41;3.73;;;0.70;;
17763;SDS011;22245;52.832;13.816;2023-12-20T02:26:02;0.80;;;0.70;;
17763;SDS011;22245;52.832;13.816;2023-12-20T02:29:25;5.20;;;0.80;;
17763;SDS011;22245;52.832;13.816;2023-12-20T02:32:48;2.03;;;0.83;;
17763;SDS011;22245;52.832;13.816;2023-12-20T02:36:11;1.73;;;0.80;;
17763;SDS011;22245;52.832;13.816;2023-12-20T02:39:34;1.87;;;0.63;;
17763;SDS011;22245;52.832;13.816;2023-12-20T02:42:55;2.70;;;0.70;;
17763;SDS011;22245;52.832;13.816;2023-12-20T02:46:17;1.77;;;1.07;;
17763;SDS011;22245;52.832;13.816;2023-12-20T02:49:39;1.70;;;0.70;;
17763;SDS011;22245;52.832;13.816;2023-12-20T02:53:01;2.37;;;0.90;;
17763;SDS011;22245;52.832;13.816;2023-12-20T02:56:24;1.30;;;0.70;;
17763;SDS011;22245;52.832;13.816;2023-12-20T02:59:45;3.13;;;0.80;;
17763;SDS011;22245;52.832;13.816;2023-12-20T03:03:07;1.03;;;0.70;;
17763;SDS011;22245;52.832;13.816;2023-12-20T03:06:28;2.03;;;0.87;;
17763;SDS011;22245;52.832;13.816;2023-12-20T03:09:50;1.40;;;0.57;;
17763;SDS011;22245;52.832;13.816;2023-12-20T03:13:32;2.20;;;0.70;;
17763;SDS011;22245;52.832;13.816;2023-12-20T03:16:54;2.80;;;0.87;;
17763;SDS011;22245;52.832;13.816;2023-12-20T03:20:19;3.40;;;0.80;;
17763;SDS011;22245;52.832;13.816;2023-12-20T03:23:40;1.67;;;0.70;;
17763;SDS011;22245;52.832;13.816;2023-12-20T03:27:02;5.07;;;1.17;;
17763;SDS011;22245;52.832;13.816;2023-12-20T03:30:25;2.00;;;0.90;;
17763;SDS011;22245;52.832;13.816;2023-12-20T03:33:47;3.50;;;0.80;;
17763;SDS011;22245;52.832;13.816;2023-12-20T03:37:09;1.83;;;1.07;;
17763;SDS011;22245;52.832;13.816;2023-12-20T03:40:31;2.90;;;1.03;;
17763;SDS011;22245;52.832;13.816;2023-12-20T03:43:52;2.90;;;1.00;;
17763;SDS011;22245;52.832;13.816;2023-12-20T03:47:16;2.87;;;1.23;;
17763;SDS011;22245;52.832;13.816;2023-12-20T03:50:37;2.77;;;1.20;;
17763;SDS011;22245;52.832;13.816;2023-12-20T03:53:59;2.37;;;1.13;;
17763;SDS011;22245;52.832;13.816;2023-12-20T03:57:20;3.83;;;1.30;;
17763;SDS011;22245;52.832;13.816;2023-12-20T04:00:41;6.73;;;2.00;;
17763;SDS011;22245;52.832;13.816;2023-12-20T04:04:04;3.70;;;1.57;;
17763;SDS011;22245;52.832;13.816;2023-12-20T04:07:26;3.07;;;1.60;;
17763;SDS011;22245;52.832;13.816;2023-12-20T04:10:48;4.73;;;2.00;;
17763;SDS011;22245;52.832;13.816;2023-12-20T04:14:09;5.57;;;1.80;;
17763;SDS011;22245;52.832;13.816;2023-12-20T04:17:31;4.87;;;1.67;;
17763;SDS011;22245;52.832;13.816;2023-12-20T04:20:54;4.10;;;1.77;;
17763;SDS011;22245;52.832;13.816;2023-12-20T04:24:16;8.43;;;2.00;;
17763;SDS011;22245;52.832;13.816;2023-12-20T04:27:37;7.93;;;1.73;;
17763;SDS011;22245;52.832;13.816;2023-12-20T04:30:59;5.67;;;1.60;;
17763;SDS011;22245;52.832;13.816;2023-12-20T04:34:21;6.03;;;1.80;;
17763;SDS011;22245;52.832;13.816;2023-12-20T04:37:45;6.33;;;1.60;;
17763;SDS011;22245;52.832;13.816;2023-12-20T04:41:09;9.70;;;1.60;;
17763;SDS011;22245;52.832;13.816;2023-12-20T04:44:31;6.47;;;1.47;;
17763;SDS011;22245;52.832;13.816;2023-12-20T04:47:52;9.50;;;1.90;;
17763;SDS011;22245;52.832;13.816;2023-12-20T04:51:13;5.70;;;1.70;;
17763;SDS011;22245;52.832;13.816;2023-12-20T04:54:36;8.67;;;2.33;;
17763;SDS011;22245;52.832;13.816;2023-12-20T04:58:00;6.70;;;1.57;;
17763;SDS011;22245;52.832;13.816;2023-12-20T05:01:22;6.07;;;1.93;;
17763;SDS011;22245;52.832;13.816;2023-12-20T05:04:43;7.60;;;2.33;;
17763;SDS011;22245;52.832;13.816;2023-12-20T05:08:05;5.10;;;2.03;;
17763;SDS011;22245;52.832;13.816;2023-12-20T05:11:29;10.40;;;2.10;;
17763;SDS011;22245;52.832;13.816;2023-12-20T05:14:51;6.33;;;1.80;;
17763;SDS011;22245;52.832;13.816;2023-12-20T05:18:12;5.93;;;1.90;;
17763;SDS011;22245;52.832;13.816;2023-12-20T05:21:34;10.07;;;2.73;;
17763;SDS011;22245;52.832;13.816;2023-12-20T05:24:56;5.93;;;1.87;;
17763;SDS011;22245;52.832;13.816;2023-12-20T05:28:19;9.07;;;1.93;;
17763;SDS011;22245;52.832;13.816;2023-12-20T05:31:41;7.43;;;1.80;;
17763;SDS011;22245;52.832;13.816;2023-12-20T05:35:03;9.07;;;1.90;;
17763;SDS011;22245;52.832;13.816;2023-12-20T05:38:25;9.33;;;2.30;;
17763;SDS011;22245;52.832;13.816;2023-12-20T05:41:47;10.37;;;2.10;;
17763;SDS011;22245;52.832;13.816;2023-12-20T05:45:10;5.53;;;1.90;;
17763;SDS011;22245;52.832;13.816;2023-12-20T05:48:31;6.77;;;2.30;;
17763;SDS011;22245;52.832;13.816;2023-12-20T05:51:53;7.00;;;1.90;;
17763;SDS011;22245;52.832;13.816;2023-12-20T05:55:15;8.37;;;2.00;;
17763;SDS011;22245;52.832;13.816;2023-12-20T05:58:38;6.83;;;2.30;;
17763;SDS011;22245;52.832;13.816;2023-12-20T06:02:02;6.60;;;2.97;;
17763;SDS011;22245;52.832;13.816;2023-12-20T06:05:24;10.57;;;2.73;;
17763;SDS011;22245;52.832;13.816;2023-12-20T06:08:46;9.50;;;2.50;;
17763;SDS011;22245;52.832;13.816;2023-12-20T06:12:07;7.77;;;2.03;;
17763;SDS011;22245;52.832;13.816;2023-12-20T06:15:30;12.13;;;2.17;;
17763;SDS011;22245;52.832;13.816;2023-12-20T06:18:53;5.90;;;1.80;;
17763;SDS011;22245;52.832;13.816;2023-12-20T06:22:14;7.57;;;1.80;;
17763;SDS011;22245;52.832;13.816;2023-12-20T06:25:36;5.67;;;2.13;;
17763;SDS011;22245;52.832;13.816;2023-12-20T06:28:57;9.47;;;1.93;;
17763;SDS011;22245;52.832;13.816;2023-12-20T06:32:19;11.77;;;2.90;;
17763;SDS011;22245;52.832;13.816;2023-12-20T06:35:41;6.83;;;1.87;;
17763;SDS011;22245;52.832;13.816;2023-12-20T06:39:03;8.77;;;2.30;;
17763;SDS011;22245;52.832;13.816;2023-12-20T06:42:24;9.70;;;1.87;;
17763;SDS011;22245;52.832;13.816;2023-12-20T06:45:46;4.40;;;1.90;;
17763;SDS011;22245;52.832;13.816;2023-12-20T06:49:08;8.63;;;1.90;;
17763;SDS011;22245;52.832;13.816;2023-12-20T06:52:31;7.50;;;2.03;;
17763;SDS011;22245;52.832;13.816;2023-12-20T06:55:53;7.60;;;1.73;;
17763;SDS011;22245;52.832;13.816;2023-12-20T06:59:16;10.10;;;2.20;;
17763;SDS011;22245;52.832;13.816;2023-12-20T07:02:37;7.60;;;1.90;;
17763;SDS011;22245;52.832;13.816;2023-12-20T07:05:58;7.13;;;2.57;;
17763;SDS011;22245;52.832;13.816;2023-12-20T07:09:21;8.40;;;2.27;;
17763;SDS011;22245;52.832;13.816;2023-12-20T07:12:43;10.93;;;2.20;;
17763;SDS011;22245;52.832;13.816;2023-12-20T07:16:05;12.67;;;3.43;;
17763;SDS011;22245;52.832;13.816;2023-12-20T07:19:27;9.07;;;2.17;;
17763;SDS011;22245;52.832;13.816;2023-12-20T07:22:49;10.10;;;2.40;;
17763;SDS011;22245;52.832;13.816;2023-12-20T07:26:12;7.67;;;1.83;;
17763;SDS011;22245;52.832;13.816;2023-12-20T07:29:33;10.43;;;2.07;;
17763;SDS011;22245;52.832;13.816;2023-12-20T07:32:55;7.60;;;1.90;;
17763;SDS011;22245;52.832;13.816;2023-12-20T07:36:16;8.80;;;2.10;;
17763;SDS011;22245;52.832;13.816;2023-12-20T07:39:39;10.10;;;2.00;;
17763;SDS011;22245;52.832;13.816;2023-12-20T07:43:02;7.43;;;1.63;;
17763;SDS011;22245;52.832;13.816;2023-12-20T07:46:24;7.03;;;1.80;;
17763;SDS011;22245;52.832;13.816;2023-12-20T07:49:46;13.33;;;2.20;;
17763;SDS011;22245;52.832;13.816;2023-12-20T07:53:08;7.00;;;1.70;;
17763;SDS011;22245;52.832;13.816;2023-12-20T07:56:29;11.63;;;3.03;;
17763;SDS011;22245;52.832;13.816;2023-12-20T07:59:52;8.13;;;2.40;;
17763;SDS011;22245;52.832;13.816;2023-12-20T08:03:14;9.73;;;3.17;;
17763;SDS011;22245;52.832;13.816;2023-12-20T08:06:36;8.87;;;2.00;;
17763;SDS011;22245;52.832;13.816;2023-12-20T08:09:58;6.30;;;1.93;;
17763;SDS011;22245;52.832;13.816;2023-12-20T08:13:20;8.67;;;1.90;;
17763;SDS011;22245;52.832;13.816;2023-12-20T08:16:46;11.17;;;2.00;;
17763;SDS011;22245;52.832;13.816;2023-12-20T08:20:08;7.97;;;1.93;;
17763;SDS011;22245;52.832;13.816;2023-12-20T08:23:31;7.53;;;2.43;;
17763;SDS011;22245;52.832;13.816;2023-12-20T08:26:53;10.93;;;3.00;;
17763;SDS011;22245;52.832;13.816;2023-12-20T08:30:15;9.13;;;2.17;;
17763;SDS011;22245;52.832;13.816;2023-12-20T08:33:38;12.10;;;2.20;;
17763;SDS011;22245;52.832;13.816;2023-12-20T08:37:00;7.23;;;2.33;;
17763;SDS011;22245;52.832;13.816;2023-12-20T08:40:22;8.57;;;2.30;;
17763;SDS011;22245;52.832;13.816;2023-12-20T08:43:43;13.73;;;3.10;;
17763;SDS011;22245;52.832;13.816;2023-12-20T08:47:05;7.80;;;2.30;;
17763;SDS011;22245;52.832;13.816;2023-12-20T08:50:29;10.00;;;2.40;;
17763;SDS011;22245;52.832;13.816;2023-12-20T08:53:51;11.10;;;3.90;;
17763;SDS011;22245;52.832;13.816;2023-12-20T08:57:12;11.33;;;2.33;;
17763;SDS011;22245;52.832;13.816;2023-12-20T09:00:34;8.50;;;2.23;;
17763;SDS011;22245;52.832;13.816;2023-12-20T09:03:56;12.77;;;2.50;;
17763;SDS011;22245;52.832;13.816;2023-12-20T09:07:22;12.17;;;2.30;;
17763;SDS011;22245;52.832;13.816;2023-12-20T09:10:44;9.47;;;2.67;;
17763;SDS011;22245;52.832;13.816;2023-12-20T09:14:06;9.20;;;2.40;;
17763;SDS011;22245;52.832;13.816;2023-12-20T09:17:27;8.43;;;2.17;;
17763;SDS011;22245;52.832;13.816;2023-12-20T09:20:48;12.70;;;4.07;;
17763;SDS011;22245;52.832;13.816;2023-12-20T09:24:12;14.73;;;3.30;;
17763;SDS011;22245;52.832;13.816;2023-12-20T09:27:33;12.07;;;2.17;;
17763;SDS011;22245;52.832;13.816;2023-12-20T09:30:55;6.70;;;2.03;;
17763;SDS011;22245;52.832;13.816;2023-12-20T09:34:16;13.20;;;2.53;;
17763;SDS011;22245;52.832;13.816;2023-12-20T09:37:38;6.63;;;1.83;;
17763;SDS011;22245;52.832;13.816;2023-12-20T09:41:02;8.00;;;2.37;;
17763;SDS011;22245;52.832;13.816;2023-12-20T09:44:24;10.20;;;2.40;;
17763;SDS011;22245;52.832;13.816;2023-12-20T09:47:46;6.03;;;2.20;;
17763;SDS011;22245;52.832;13.816;2023-12-20T09:51:08;9.50;;;1.97;;
17763;SDS011;22245;52.832;13.816;2023-12-20T09:54:29;9.43;;;2.17;;
17763;SDS011;22245;52.832;13.816;2023-12-20T09:57:53;9.67;;;2.70;;
17763;SDS011;22245;52.832;13.816;2023-12-20T10:01:15;7.60;;;1.73;;
17763;SDS011;22245;52.832;13.816;2023-12-20T10:04:37;8.10;;;2.03;;
17763;SDS011;22245;52.832;13.816;2023-12-20T10:08:00;8.93;;;2.10;;
17763;SDS011;22245;52.832;13.816;2023-12-20T10:11:22;6.80;;;1.73;;
17763;SDS011;22245;52.832;13.816;2023-12-20T10:14:45;7.87;;;2.47;;
17763;SDS011;22245;52.832;13.816;2023-12-20T10:18:07;9.40;;;2.17;;
17763;SDS011;22245;52.832;13.816;2023-12-20T10:21:29;9.73;;;2.53;;
17763;SDS011;22245;52.832;13.816;2023-12-20T10:24:51;10.57;;;1.93;;
17763;SDS011;22245;52.832;13.816;2023-12-20T10:28:13;12.80;;;1.97;;
17763;SDS011;22245;52.832;13.816;2023-12-20T10:31:39;7.70;;;2.07;;
17763;SDS011;22245;52.832;13.816;2023-12-20T10:35:02;9.87;;;2.27;;
17763;SDS011;22245;52.832;13.816;2023-12-20T10:38:24;10.03;;;2.30;;
17763;SDS011;22245;52.832;13.816;2023-12-20T10:41:46;11.37;;;2.60;;
17763;SDS011;22245;52.832;13.816;2023-12-20T10:45:08;10.47;;;2.07;;
17763;SDS011;22245;52.832;13.816;2023-12-20T10:48:32;6.60;;;2.00;;
17763;SDS011;22245;52.832;13.816;2023-12-20T10:51:56;9.13;;;2.27;;
17763;SDS011;22245;52.832;13.816;2023-12-20T10:55:21;9.60;;;2.13;;
17763;SDS011;22245;52.832;13.816;2023-12-20T10:58:43;9.77;;;2.37;;
17763;SDS011;22245;52.832;13.816;2023-12-20T11:02:05;12.17;;;2.10;;
17763;SDS011;22245;52.832;13.816;2023-12-20T11:05:36;10.90;;;2.90;;
17763;SDS011;22245;52.832;13.816;2023-12-20T11:09:10;11.60;;;2.40;;
17763;SDS011;22245;52.832;13.816;2023-12-20T11:12:39;9.67;;;2.57;;
17763;SDS011;22245;52.832;13.816;2023-12-20T11:16:06;14.33;;;2.67;;
17763;SDS011;22245;52.832;13.816;2023-12-20T11:19:29;7.90;;;2.47;;
17763;SDS011;22245;52.832;13.816;2023-12-20T11:22:53;8.87;;;2.70;;
17763;SDS011;22245;52.832;13.816;2023-12-20T11:26:16;12.83;;;3.20;;
17763;SDS011;22245;52.832;13.816;2023-12-20T11:29:43;11.13;;;2.87;;
17763;SDS011;22245;52.832;13.816;2023-12-20T11:33:12;10.53;;;2.17;;
17763;SDS011;22245;52.832;13.816;2023-12-20T11:36:34;11.90;;;2.30;;
17763;SDS011;22245;52.832;13.816;2023-12-20T11:40:04;7.80;;;2.73;;
17763;SDS011;22245;52.832;13.816;2023-12-20T11:43:30;13.40;;;2.20;;
17763;SDS011;22245;52.832;13.816;2023-12-20T11:46:54;9.70;;;2.20;;
17763;SDS011;22245;52.832;13.816;2023-12-20T11:50:17;7.63;;;2.47;;
17763;SDS011;22245;52.832;13.816;2023-12-20T11:53:40;9.97;;;2.53;;
17763;SDS011;22245;52.832;13.816;2023-12-20T11:57:04;11.17;;;2.20;;
17763;SDS011;22245;52.832;13.816;2023-12-20T12:00:26;11.53;;;2.03;;
17763;SDS011;22245;52.832;13.816;2023-12-20T12:03:47;9.37;;;2.40;;
17763;SDS011;22245;52.832;13.816;2023-12-20T12:07:09;13.00;;;2.77;;
17763;SDS011;22245;52.832;13.816;2023-12-20T12:10:31;10.90;;;2.73;;
17763;SDS011;22245;52.832;13.816;2023-12-20T12:13:54;11.60;;;2.50;;
17763;SDS011;22245;52.832;13.816;2023-12-20T12:17:16;9.03;;;2.43;;
17763;SDS011;22245;52.832;13.816;2023-12-20T12:20:38;16.27;;;2.73;;
17763;SDS011;22245;52.832;13.816;2023-12-20T12:24:07;8.87;;;2.33;;
17763;SDS011;22245;52.832;13.816;2023-12-20T12:27:28;8.60;;;2.43;;
17763;SDS011;22245;52.832;13.816;2023-12-20T12:30:57;8.43;;;2.60;;
17763;SDS011;22245;52.832;13.816;2023-12-20T12:34:19;12.57;;;2.83;;
17763;SDS011;22245;52.832;13.816;2023-12-20T12:37:41;8.23;;;2.50;;
17763;SDS011;22245;52.832;13.816;2023-12-20T12:41:04;15.60;;;2.80;;
17763;SDS011;22245;52.832;13.816;2023-12-20T12:44:25;8.30;;;2.70;;
17763;SDS011;22245;52.832;13.816;2023-12-20T12:47:48;7.63;;;2.53;;
17763;SDS011;22245;52.832;13.816;2023-12-20T12:51:10;10.00;;;2.87;;
17763;SDS011;22245;52.832;13.816;2023-12-20T12:54:33;10.87;;;2.93;;
17763;SDS011;22245;52.832;13.816;2023-12-20T12:57:54;10.43;;;2.60;;
17763;SDS011;22245;52.832;13.816;2023-12-20T13:01:16;5.30;;;2.70;;
17763;SDS011;22245;52.832;13.816;2023-12-20T13:04:39;7.80;;;2.00;;
17763;SDS011;22245;52.832;13.816;2023-12-20T13:08:01;6.00;;;2.30;;
17763;SDS011;22245;52.832;13.816;2023-12-20T13:11:23;7.33;;;2.00;;
17763;SDS011;22245;52.832;13.816;2023-12-20T13:14:45;8.70;;;2.07;;
17763;SDS011;22245;52.832;13.816;2023-12-20T13:18:06;4.87;;;1.80;;
17763;SDS011;22245;52.832;13.816;2023-12-20T13:21:29;5.53;;;1.70;;
17763;SDS011;22245;52.832;13.816;2023-12-20T13:24:50;3.30;;;1.40;;
17763;SDS011;22245;52.832;13.816;2023-12-20T13:28:12;4.43;;;1.80;;
17763;SDS011;22245;52.832;13.816;2023-12-20T13:31:35;2.77;;;0.87;;
17763;SDS011;22245;52.832;13.816;2023-12-20T13:34:57;2.40;;;1.03;;
17763;SDS011;22245;52.832;13.816;2023-12-20T13:38:21;1.77;;;0.83;;
17763;SDS011;22245;52.832;13.816;2023-12-20T13:41:42;3.83;;;1.10;;
17763;SDS011;22245;52.832;13.816;2023-12-20T13:45:04;1.37;;;0.60;;
17763;SDS011;22245;52.832;13.816;2023-12-20T13:48:26;2.03;;;0.93;;
17763;SDS011;22245;52.832;13.816;2023-12-20T13:51:48;2.10;;;1.03;;
17763;SDS011;22245;52.832;13.816;2023-12-20T13:55:11;2.30;;;1.17;;
17763;SDS011;22245;52.832;13.816;2023-12-20T13:58:33;2.27;;;0.90;;
17763;SDS011;22245;52.832;13.816;2023-12-20T14:01:56;3.03;;;0.70;;
17763;SDS011;22245;52.832;13.816;2023-12-20T14:05:18;4.27;;;1.07;;
17763;SDS011;22245;52.832;13.816;2023-12-20T14:08:44;2.43;;;0.83;;
17763;SDS011;22245;52.832;13.816;2023-12-20T14:12:07;4.03;;;1.20;;
17763;SDS011;22245;52.832;13.816;2023-12-20T14:15:29;3.53;;;1.00;;
17763;SDS011;22245;52.832;13.816;2023-12-20T14:18:56;1.90;;;1.17;;
17763;SDS011;22245;52.832;13.816;2023-12-20T14:22:18;4.40;;;1.30;;
17763;SDS011;22245;52.832;13.816;2023-12-20T14:25:40;1.20;;;0.90;;
17763;SDS011;22245;52.832;13.816;2023-12-20T14:29:12;2.60;;;1.17;;
17763;SDS011;22245;52.832;13.816;2023-12-20T14:32:35;2.83;;;1.03;;
17763;SDS011;22245;52.832;13.816;2023-12-20T14:35:58;3.00;;;1.23;;
17763;SDS011;22245;52.832;13.816;2023-12-20T14:39:19;2.97;;;1.27;;
17763;SDS011;22245;52.832;13.816;2023-12-20T14:42:40;4.37;;;1.30;;
17763;SDS011;22245;52.832;13.816;2023-12-20T14:46:03;1.60;;;1.03;;
17763;SDS011;22245;52.832;13.816;2023-12-20T14:49:26;4.77;;;1.43;;
17763;SDS011;22245;52.832;13.816;2023-12-20T14:52:48;4.33;;;1.23;;
17763;SDS011;22245;52.832;13.816;2023-12-20T14:56:09;1.87;;;0.97;;
17763;SDS011;22245;52.832;13.816;2023-12-20T14:59:31;1.93;;;0.90;;
17763;SDS011;22245;52.832;13.816;2023-12-20T15:02:54;2.90;;;0.73;;
17763;SDS011;22245;52.832;13.816;2023-12-20T15:06:16;1.87;;;0.73;;
17763;SDS011;22245;52.832;13.816;2023-12-20T15:09:37;3.20;;;0.90;;
17763;SDS011;22245;52.832;13.816;2023-12-20T15:13:00;3.03;;;1.07;;
17763;SDS011;22245;52.832;13.816;2023-12-20T15:16:22;3.77;;;0.90;;
17763;SDS011;22245;52.832;13.816;2023-12-20T15:19:45;3.37;;;0.80;;
17763;SDS011;22245;52.832;13.816;2023-12-20T15:23:06;5.07;;;0.90;;
17763;SDS011;22245;52.832;13.816;2023-12-20T15:26:28;2.50;;;1.03;;
17763;SDS011;22245;52.832;13.816;2023-12-20T15:29:49;2.10;;;0.70;;
17763;SDS011;22245;52.832;13.816;2023-12-20T15:33:11;4.37;;;0.90;;
17763;SDS011;22245;52.832;13.816;2023-12-20T15:36:34;4.70;;;1.60;;
17763;SDS011;22245;52.832;13.816;2023-12-20T15:39:56;3.53;;;1.23;;
17763;SDS011;22245;52.832;13.816;2023-12-20T15:43:17;2.83;;;1.00;;
17763;SDS011;22245;52.832;13.816;2023-12-20T15:46:39;4.07;;;1.07;;
17763;SDS011;22245;52.832;13.816;2023-12-20T15:50:00;2.57;;;1.10;;
17763;SDS011;22245;52.832;13.816;2023-12-20T15:53:24;3.33;;;1.60;;
17763;SDS011;22245;52.832;13.816;2023-12-20T15:56:45;4.77;;;2.07;;
17763;SDS011;22245;52.832;13.816;2023-12-20T16:00:08;1.80;;;1.07;;
17763;SDS011;22245;52.832;13.816;2023-12-20T16:03:30;2.63;;;0.73;;
17763;SDS011;22245;52.832;13.816;2023-12-20T16:07:00;4.03;;;1.23;;
17763;SDS011;22245;52.832;13.816;2023-12-20T16:10:23;4.43;;;1.07;;
17763;SDS011;22245;52.832;13.816;2023-12-20T16:13:44;3.80;;;0.90;;
17763;SDS011;22245;52.832;13.816;2023-12-20T16:17:06;2.30;;;0.80;;
17763;SDS011;22245;52.832;13.816;2023-12-20T16:20:27;4.03;;;0.90;;
17763;SDS011;22245;52.832;13.816;2023-12-20T16:23:49;2.70;;;0.90;;
17763;SDS011;22245;52.832;13.816;2023-12-20T16:27:11;3.20;;;0.97;;
17763;SDS011;22245;52.832;13.816;2023-12-20T16:30:33;3.40;;;1.43;;
17763;SDS011;22245;52.832;13.816;2023-12-20T16:33:55;2.63;;;0.97;;
17763;SDS011;22245;52.832;13.816;2023-12-20T16:37:17;3.90;;;1.40;;
17763;SDS011;22245;52.832;13.816;2023-12-20T16:40:38;5.57;;;1.37;;
17763;SDS011;22245;52.832;13.816;2023-12-20T16:44:01;4.37;;;1.40;;
17763;SDS011;22245;52.832;13.816;2023-12-20T16:47:23;8.10;;;1.67;;
17763;SDS011;22245;52.832;13.816;2023-12-20T16:50:44;4.37;;;1.23;;
17763;SDS011;22245;52.832;13.816;2023-12-20T16:54:05;4.93;;;1.30;;
17763;SDS011;22245;52.832;13.816;2023-12-20T16:57:28;3.30;;;1.30;;
17763;SDS011;22245;52.832;13.816;2023-12-20T17:00:50;5.10;;;1.47;;
17763;SDS011;22245;52.832;13.816;2023-12-20T17:04:12;8.10;;;1.77;;
17763;SDS011;22245;52.832;13.816;2023-12-20T17:07:33;8.93;;;2.10;;
17763;SDS011;22245;52.832;13.816;2023-12-20T17:10:55;7.57;;;2.63;;
17763;SDS011;22245;52.832;13.816;2023-12-20T17:14:17;6.03;;;2.07;;
17763;SDS011;22245;52.832;13.816;2023-12-20T17:17:40;6.87;;;2.40;;
17763;SDS011;22245;52.832;13.816;2023-12-20T17:21:05;7.13;;;2.10;;
17763;SDS011;22245;52.832;13.816;2023-12-20T17:24:28;6.43;;;2.17;;
17763;SDS011;22245;52.832;13.816;2023-12-20T17:27:49;5.03;;;2.10;;
17763;SDS011;22245;52.832;13.816;2023-12-20T17:31:11;8.97;;;2.20;;
17763;SDS011;22245;52.832;13.816;2023-12-20T17:34:34;9.57;;;2.63;;
17763;SDS011;22245;52.832;13.816;2023-12-20T17:37:57;5.67;;;1.87;;
17763;SDS011;22245;52.832;13.816;2023-12-20T17:41:18;11.93;;;3.03;;
17763;SDS011;22245;52.832;13.816;2023-12-20T17:44:40;6.13;;;1.90;;
17763;SDS011;22245;52.832;13.816;2023-12-20T17:48:02;8.63;;;1.97;;
17763;SDS011;22245;52.832;13.816;2023-12-20T17:51:25;8.47;;;2.10;;
17763;SDS011;22245;52.832;13.816;2023-12-20T17:54:47;9.47;;;2.50;;
17763;SDS011;22245;52.832;13.816;2023-12-20T17:58:08;8.40;;;2.30;;
17763;SDS011;22245;52.832;13.816;2023-12-20T18:01:30;7.33;;;2.27;;
17763;SDS011;22245;52.832;13.816;2023-12-20T18:04:52;8.43;;;2.77;;
17763;SDS011;22245;52.832;13.816;2023-12-20T18:08:15;14.17;;;2.70;;
17763;SDS011;22245;52.832;13.816;2023-12-20T18:11:36;11.67;;;2.57;;
17763;SDS011;22245;52.832;13.816;2023-12-20T18:14:58;9.53;;;2.33;;
17763;SDS011;22245;52.832;13.816;2023-12-20T18:18:19;7.37;;;2.17;;
17763;SDS011;22245;52.832;13.816;2023-12-20T18:21:41;10.43;;;2.47;;
17763;SDS011;22245;52.832;13.816;2023-12-20T18:25:04;7.97;;;2.20;;
17763;SDS011;22245;52.832;13.816;2023-12-20T18:28:29;8.53;;;1.63;;
17763;SDS011;22245;52.832;13.816;2023-12-20T18:31:50;7.47;;;2.50;;
17763;SDS011;22245;52.832;13.816;2023-12-20T18:35:13;5.57;;;1.83;;
17763;SDS011;22245;52.832;13.816;2023-12-20T18:38:35;11.60;;;2.57;;
17763;SDS011;22245;52.832;13.816;2023-12-20T18:41:58;6.97;;;1.80;;
17763;SDS011;22245;52.832;13.816;2023-12-20T18:45:19;6.87;;;2.50;;
17763;SDS011;22245;52.832;13.816;2023-12-20T18:48:41;9.17;;;2.17;;
17763;SDS011;22245;52.832;13.816;2023-12-20T18:52:05;8.17;;;1.93;;
17763;SDS011;22245;52.832;13.816;2023-12-20T18:55:27;10.37;;;2.33;;
17763;SDS011;22245;52.832;13.816;2023-12-20T18:58:50;6.23;;;2.30;;
17763;SDS011;22245;52.832;13.816;2023-12-20T19:02:12;12.10;;;2.63;;
17763;SDS011;22245;52.832;13.816;2023-12-20T19:05:33;5.77;;;2.27;;
17763;SDS011;22245;52.832;13.816;2023-12-20T19:08:55;10.87;;;2.13;;
17763;SDS011;22245;52.832;13.816;2023-12-20T19:12:16;7.10;;;2.37;;
17763;SDS011;22245;52.832;13.816;2023-12-20T19:15:39;5.90;;;2.47;;
17763;SDS011;22245;52.832;13.816;2023-12-20T19:19:00;14.10;;;2.77;;
17763;SDS011;22245;52.832;13.816;2023-12-20T19:22:22;6.70;;;2.03;;
17763;SDS011;22245;52.832;13.816;2023-12-20T19:25:47;9.03;;;2.10;;
17763;SDS011;22245;52.832;13.816;2023-12-20T19:29:08;10.63;;;2.20;;
17763;SDS011;22245;52.832;13.816;2023-12-20T19:32:31;10.43;;;2.60;;
17763;SDS011;22245;52.832;13.816;2023-12-20T19:35:53;10.53;;;2.70;;
17763;SDS011;22245;52.832;13.816;2023-12-20T19:39:14;8.80;;;1.90;;
17763;SDS011;22245;52.832;13.816;2023-12-20T19:42:36;14.27;;;2.43;;
17763;SDS011;22245;52.832;13.816;2023-12-20T19:45:58;9.70;;;2.50;;
17763;SDS011;22245;52.832;13.816;2023-12-20T19:49:21;6.30;;;2.00;;
17763;SDS011;22245;52.832;13.816;2023-12-20T19:52:43;8.67;;;1.67;;
17763;SDS011;22245;52.832;13.816;2023-12-20T19:56:05;9.70;;;2.13;;